Time,TemperatureF,DewpointF,PressureIn,WindDirection,WindDirectionDegrees,WindSpeedMPH,WindSpeedGustMPH,Humidity,HourlyPrecipIn,Conditions,Clouds,dailyrainin,SoftwareType,DateUTC
2013-04-30 00:13:00,41.8,39.0,30.25,NNE,27,0.0,0.0,91,0.00,,,0.01,weatherlink.com 1.10,2013-04-30 07:13:00,
2013-04-30 00:28:00,41.9,40.0,30.25,NNW,346,0.0,0.0,91,0.00,,,0.01,weatherlink.com 1.10,2013-04-30 07:28:00,
2013-04-30 00:43:00,41.8,39.0,30.25,ESE,107,0.0,1.0,90,0.00,,,0.01,weatherlink.com 1.10,2013-04-30 07:43:00,
2013-04-30 00:58:00,41.6,39.0,30.25,ENE,68,0.0,0.0,91,0.00,,,0.01,weatherlink.com 1.10,2013-04-30 07:58:00,
2013-04-30 01:13:00,42.0,40.0,30.25,ESE,105,0.0,1.0,91,0.00,,,0.01,weatherlink.com 1.10,2013-04-30 08:13:00,
2013-04-30 01:28:00,42.2,40.0,30.26,ESE,104,0.0,0.0,91,0.00,,,0.01,weatherlink.com 1.10,2013-04-30 08:28:00,
2013-04-30 01:43:00,42.3,40.0,30.26,ENE,64,0.0,3.0,90,0.00,,,0.01,weatherlink.com 1.10,2013-04-30 08:43:00,
2013-04-30 01:58:00,42.3,40.0,30.26,NNE,30,0.0,0.0,90,0.00,,,0.01,weatherlink.com 1.10,2013-04-30 08:58:00,
2013-04-30 02:13:00,42.0,39.0,30.26,NNE,30,0.0,1.0,90,0.00,,,0.01,weatherlink.com 1.10,2013-04-30 09:13:00,
2013-04-30 02:28:00,41.9,40.0,30.26,NNE,30,0.0,1.0,91,0.00,,,0.01,weatherlink.com 1.10,2013-04-30 09:28:00,
2013-04-30 02:43:00,42.3,40.0,30.26,ENE,77,0.0,0.0,91,0.00,,,0.01,weatherlink.com 1.10,2013-04-30 09:43:00,
2013-04-30 02:58:00,42.8,40.0,30.27,NE,51,0.0,1.0,91,0.01,,,0.02,weatherlink.com 1.10,2013-04-30 09:58:00,
2013-04-30 03:13:00,42.9,41.0,30.26,NE,44,0.0,1.0,91,0.01,,,0.02,weatherlink.com 1.10,2013-04-30 10:13:00,
2013-04-30 03:28:00,42.5,40.0,30.26,NE,44,0.0,0.0,92,0.01,,,0.02,weatherlink.com 1.10,2013-04-30 10:28:00,
2013-04-30 03:43:00,42.1,40.0,30.26,NE,45,0.0,1.0,92,0.01,,,0.00,weatherlink.com 1.10,2013-04-30 10:43:00,
2013-04-30 03:58:00,42.1,40.0,30.26,ENE,65,0.0,0.0,92,0.00,,,0.00,weatherlink.com 1.10,2013-04-30 10:58:00,
2013-04-30 04:13:00,42.1,40.0,30.27,ENE,65,0.0,0.0,93,0.00,,,0.00,weatherlink.com 1.10,2013-04-30 11:13:00,
2013-04-30 04:28:00,42.3,41.0,30.27,ESE,106,0.0,6.0,93,0.00,,,0.00,weatherlink.com 1.10,2013-04-30 11:28:00,
2013-04-30 04:43:00,42.9,41.0,30.28,NE,36,0.0,7.0,92,0.00,,,0.00,weatherlink.com 1.10,2013-04-30 11:43:00,
2013-04-30 04:58:00,42.8,41.0,30.27,NE,36,0.0,0.0,92,0.01,,,0.01,weatherlink.com 1.10,2013-04-30 11:58:00,
2013-04-30 05:13:00,42.0,40.0,30.27,NE,36,0.0,0.0,91,0.01,,,0.01,weatherlink.com 1.10,2013-04-30 12:13:00,
2013-04-30 05:28:00,41.5,39.0,30.27,NE,37,0.0,1.0,92,0.01,,,0.01,weatherlink.com 1.10,2013-04-30 12:28:00,
2013-04-30 05:44:00,41.5,39.0,30.27,East,94,0.0,0.0,92,0.01,,,0.01,weatherlink.com 1.10,2013-04-30 12:44:00,
2013-04-30 05:58:00,41.0,39.0,30.28,East,94,0.0,0.0,93,0.00,,,0.01,weatherlink.com 1.10,2013-04-30 12:58:00,
2013-04-30 06:13:00,40.6,39.0,30.28,East,95,0.0,0.0,93,0.00,,,0.01,weatherlink.com 1.10,2013-04-30 13:13:00,
2013-04-30 06:28:00,40.7,39.0,30.28,SE,133,0.0,1.0,93,0.00,,,0.01,weatherlink.com 1.10,2013-04-30 13:28:00,
2013-04-30 06:43:00,41.5,40.0,30.29,ESE,113,0.0,1.0,93,0.00,,,0.01,weatherlink.com 1.10,2013-04-30 13:43:00,
2013-04-30 06:58:00,41.7,40.0,30.30,ENE,66,0.0,0.0,93,0.00,,,0.01,weatherlink.com 1.10,2013-04-30 13:58:00,
2013-04-30 07:13:00,42.0,40.0,30.30,ENE,65,0.0,0.0,93,0.00,,,0.01,weatherlink.com 1.10,2013-04-30 14:13:00,
2013-04-30 07:28:00,42.4,41.0,30.31,ENE,66,0.0,1.0,93,0.00,,,0.01,weatherlink.com 1.10,2013-04-30 14:28:00,
2013-04-30 07:43:00,43.6,42.0,30.31,ENE,67,0.0,0.0,94,0.00,,,0.01,weatherlink.com 1.10,2013-04-30 14:43:00,
2013-04-30 07:58:00,44.0,42.0,30.30,SE,127,0.0,1.0,93,0.00,,,0.01,weatherlink.com 1.10,2013-04-30 14:58:00,
2013-04-30 08:13:00,43.7,42.0,30.31,NE,54,0.0,4.0,93,0.00,,,0.01,weatherlink.com 1.10,2013-04-30 15:13:00,
2013-04-30 08:28:00,43.9,42.0,30.31,NE,44,0.0,2.0,93,0.00,,,0.01,weatherlink.com 1.10,2013-04-30 15:28:00,
2013-04-30 08:43:00,45.0,43.0,30.32,East,91,0.0,2.0,92,0.00,,,0.01,weatherlink.com 1.10,2013-04-30 15:43:00,
2013-04-30 08:59:00,46.0,43.0,30.32,East,82,0.0,2.0,90,0.00,,,0.01,weatherlink.com 1.10,2013-04-30 15:59:00,
2013-04-30 09:14:00,46.9,44.0,30.32,East,86,0.0,1.0,88,0.00,,,0.01,weatherlink.com 1.10,2013-04-30 16:14:00,
2013-04-30 09:29:00,48.7,44.0,30.32,ENE,76,0.0,2.0,84,0.00,,,0.01,weatherlink.com 1.10,2013-04-30 16:29:00,
2013-04-30 09:44:00,48.2,43.0,30.32,East,84,0.0,4.0,81,0.01,,,0.02,weatherlink.com 1.10,2013-04-30 16:44:00,
2013-04-30 09:59:00,47.8,43.0,30.33,ESE,110,0.0,3.0,82,0.02,,,0.03,weatherlink.com 1.10,2013-04-30 16:59:00,
2013-04-30 10:14:00,47.0,43.0,30.33,WNW,297,0.0,5.0,87,0.02,,,0.03,weatherlink.com 1.10,2013-04-30 17:14:00,
2013-04-30 10:29:00,49.2,45.0,30.34,ENE,70,1.0,4.0,86,0.02,,,0.03,weatherlink.com 1.10,2013-04-30 17:29:00,
2013-04-30 10:44:00,50.7,45.0,30.34,ENE,70,2.0,6.0,80,0.01,,,0.03,weatherlink.com 1.10,2013-04-30 17:44:00,
2013-04-30 10:59:00,51.5,45.0,30.33,NE,45,3.0,7.0,77,0.00,,,0.03,weatherlink.com 1.10,2013-04-30 17:59:00,
2013-04-30 11:14:00,52.5,43.0,30.34,NW,316,0.0,10.0,69,0.00,,,0.03,weatherlink.com 1.10,2013-04-30 18:14:00,
2013-04-30 11:29:00,53.2,42.0,30.35,East,91,1.0,7.0,66,0.00,,,0.03,weatherlink.com 1.10,2013-04-30 18:29:00,
2013-04-30 11:44:00,53.3,40.0,30.35,WNW,300,3.0,9.0,62,0.00,,,0.03,weatherlink.com 1.10,2013-04-30 18:44:00,
2013-04-30 11:59:00,53.0,41.0,30.36,North,4,2.0,8.0,65,0.00,,,0.03,weatherlink.com 1.10,2013-04-30 18:59:00,
2013-04-30 12:14:00,52.6,42.0,30.36,WNW,287,11.0,12.0,68,0.00,,,0.03,weatherlink.com 1.10,2013-04-30 19:14:00,
2013-04-30 12:29:00,49.7,42.0,30.36,WSW,238,0.0,7.0,76,0.00,,,0.03,weatherlink.com 1.10,2013-04-30 19:29:00,
2013-04-30 12:44:00,51.9,43.0,30.36,NNW,347,1.0,5.0,71,0.00,,,0.03,weatherlink.com 1.10,2013-04-30 19:44:00,
2013-04-30 12:59:00,53.0,43.0,30.37,West,274,4.0,7.0,68,0.00,,,0.03,weatherlink.com 1.10,2013-04-30 19:59:00,
2013-04-30 13:14:00,54.3,44.0,30.37,NE,49,1.0,6.0,68,0.00,,,0.03,weatherlink.com 1.10,2013-04-30 20:14:00,
2013-04-30 13:29:00,52.9,41.0,30.37,East,93,2.0,8.0,65,0.00,,,0.03,weatherlink.com 1.10,2013-04-30 20:29:00,
2013-04-30 13:44:00,53.3,43.0,30.37,NW,311,2.0,9.0,67,0.00,,,0.03,weatherlink.com 1.10,2013-04-30 20:44:00,
2013-04-30 13:59:00,53.7,42.0,30.38,ESE,105,1.0,7.0,64,0.00,,,0.03,weatherlink.com 1.10,2013-04-30 20:59:00,
2013-04-30 14:14:00,53.9,42.0,30.38,ESE,114,4.0,9.0,64,0.00,,,0.03,weatherlink.com 1.10,2013-04-30 21:14:00,
2013-04-30 14:29:00,54.5,44.0,30.38,WNW,285,1.0,7.0,67,0.00,,,0.03,weatherlink.com 1.10,2013-04-30 21:29:00,
2013-04-30 14:44:00,54.6,41.0,30.39,West,263,7.0,9.0,60,0.00,,,0.03,weatherlink.com 1.10,2013-04-30 21:44:00,
2013-04-30 14:59:00,54.4,42.0,30.39,WNW,291,1.0,6.0,63,0.00,,,0.03,weatherlink.com 1.10,2013-04-30 21:59:00,
2013-04-30 15:14:00,54.5,42.0,30.38,NW,307,1.0,11.0,62,0.00,,,0.03,weatherlink.com 1.10,2013-04-30 22:14:00,
2013-04-30 15:29:00,53.9,42.0,30.38,WNW,297,1.0,10.0,64,0.00,,,0.03,weatherlink.com 1.10,2013-04-30 22:29:00,
2013-04-30 15:44:00,53.9,43.0,30.38,ENE,63,0.0,10.0,68,0.00,,,0.03,weatherlink.com 1.10,2013-04-30 22:44:00,
2013-04-30 15:59:00,53.9,41.0,30.38,NW,326,5.0,7.0,63,0.00,,,0.03,weatherlink.com 1.10,2013-04-30 22:59:00,
2013-04-30 16:14:00,54.1,42.0,30.38,SSW,193,2.0,5.0,65,0.00,,,0.03,weatherlink.com 1.10,2013-04-30 23:14:00,
2013-04-30 16:30:00,53.9,40.0,30.38,East,94,2.0,7.0,59,0.00,,,0.03,weatherlink.com 1.10,2013-04-30 23:30:00,
2013-04-30 16:45:00,53.4,39.0,30.39,East,98,2.0,7.0,58,0.00,,,0.03,weatherlink.com 1.10,2013-04-30 23:45:00,
2013-04-30 17:00:00,53.6,39.0,30.39,West,270,2.0,11.0,59,0.00,,,0.03,weatherlink.com 1.10,2013-05-01 00:00:00,
2013-04-30 17:15:00,53.4,40.0,30.39,North,4,1.0,8.0,62,0.00,,,0.03,weatherlink.com 1.10,2013-05-01 00:15:00,
2013-04-30 17:30:00,53.6,41.0,30.39,ESE,116,4.0,6.0,62,0.00,,,0.03,weatherlink.com 1.10,2013-05-01 00:30:00,
2013-04-30 17:45:00,53.4,40.0,30.39,West,264,2.0,7.0,61,0.00,,,0.03,weatherlink.com 1.10,2013-05-01 00:45:00,
2013-04-30 18:00:00,53.1,38.0,30.39,ESE,103,3.0,7.0,57,0.00,,,0.03,weatherlink.com 1.10,2013-05-01 01:00:00,
2013-04-30 18:15:00,52.3,37.0,30.39,East,99,1.0,10.0,57,0.00,,,0.03,weatherlink.com 1.10,2013-05-01 01:15:00,
2013-04-30 18:30:00,52.1,38.0,30.40,ESE,107,4.0,5.0,60,0.00,,,0.03,weatherlink.com 1.10,2013-05-01 01:30:00,
2013-04-30 18:45:00,51.5,40.0,30.40,SE,129,2.0,6.0,65,0.00,,,0.03,weatherlink.com 1.10,2013-05-01 01:45:00,
2013-04-30 19:00:00,50.9,41.0,30.40,NE,49,1.0,6.0,68,0.00,,,0.03,weatherlink.com 1.10,2013-05-01 02:00:00,
2013-04-30 19:15:00,50.3,41.0,30.40,SW,217,1.0,8.0,70,0.00,,,0.03,weatherlink.com 1.10,2013-05-01 02:15:00,
2013-04-30 19:30:00,49.8,40.0,30.41,West,281,0.0,5.0,68,0.00,,,0.03,weatherlink.com 1.10,2013-05-01 02:30:00,
2013-04-30 19:45:00,48.7,39.0,30.41,NNE,22,0.0,5.0,68,0.00,,,0.03,weatherlink.com 1.10,2013-05-01 02:45:00,
2013-04-30 20:00:00,47.7,39.0,30.41,North,355,0.0,2.0,72,0.00,,,0.03,weatherlink.com 1.10,2013-05-01 03:00:00,
2013-04-30 20:15:00,46.9,39.0,30.41,WSW,253,0.0,2.0,75,0.00,,,0.03,weatherlink.com 1.10,2013-05-01 03:15:00,
2013-04-30 20:30:00,46.0,40.0,30.41,East,90,0.0,0.0,78,0.00,,,0.03,weatherlink.com 1.10,2013-05-01 03:30:00,
2013-04-30 20:45:00,45.2,39.0,30.41,NE,36,0.0,1.0,80,0.00,,,0.03,weatherlink.com 1.10,2013-05-01 03:45:00,
2013-04-30 21:00:00,44.9,39.0,30.42,ENE,71,0.0,1.0,80,0.00,,,0.03,weatherlink.com 1.10,2013-05-01 04:00:00,
2013-04-30 21:15:00,44.4,39.0,30.42,North,354,0.0,0.0,81,0.00,,,0.03,weatherlink.com 1.10,2013-05-01 04:15:00,
2013-04-30 21:30:00,43.6,39.0,30.42,North,8,0.0,0.0,83,0.00,,,0.03,weatherlink.com 1.10,2013-05-01 04:30:00,
2013-04-30 21:45:00,43.0,39.0,30.43,NNE,19,0.0,0.0,85,0.00,,,0.03,weatherlink.com 1.10,2013-05-01 04:45:00,
2013-04-30 22:00:00,42.4,39.0,30.43,NNE,18,0.0,0.0,86,0.00,,,0.03,weatherlink.com 1.10,2013-05-01 05:00:00,
2013-04-30 22:15:00,42.0,39.0,30.43,NNE,18,0.0,0.0,88,0.00,,,0.03,weatherlink.com 1.10,2013-05-01 05:15:00,
2013-04-30 22:30:00,41.5,39.0,30.43,NNE,17,0.0,0.0,89,0.00,,,0.03,weatherlink.com 1.10,2013-05-01 05:30:00,
2013-04-30 22:45:00,41.1,38.0,30.44,NNE,17,0.0,0.0,90,0.00,,,0.03,weatherlink.com 1.10,2013-05-01 05:45:00,
2013-04-30 23:00:00,40.8,38.0,30.44,NNE,17,0.0,0.0,90,0.00,,,0.03,weatherlink.com 1.10,2013-05-01 06:00:00,
2013-04-30 23:15:00,40.4,38.0,30.44,NNE,18,0.0,0.0,91,0.00,,,0.03,weatherlink.com 1.10,2013-05-01 06:15:00,
2013-04-30 23:30:00,40.1,38.0,30.44,NNE,17,0.0,0.0,91,0.00,,,0.03,weatherlink.com 1.10,2013-05-01 06:30:00,
2013-04-30 23:45:00,40.4,38.0,30.45,NE,43,0.0,0.0,91,0.00,,,0.03,weatherlink.com 1.10,2013-05-01 06:45:00,